Time;durP1;ratioP1;P1;durP2;ratioP2;P2;SDS_P1;SDS_P2;PMS_P1;PMS_P2;Temp;Humidity;BMP_temperature;BMP_pressure;BME280_temperature;BME280_humidity;BME280_pressure;Samples;Min_cycle;Max_cycle;Signal;HPM_P1;HPM_P2
2024/01/10 00:01:32;;;;;;;;;;;12.60;99.90;;;;;;5093379;28;19920;-83
2024/01/10 00:03:57;;;;;;;;;;;12.60;99.90;;;;;;5093304;28;19954;-83
2024/01/10 00:06:24;;;;;;;;;;;12.60;99.90;;;;;;5091529;28;20023;-83
2024/01/10 00:08:50;;;;;;;;;;;12.50;99.90;;;;;;5074649;28;19920;-82
2024/01/10 00:11:16;;;;;;;;;;;12.50;99.90;;;;;;5093332;28;19912;-83
2024/01/10 00:13:42;;;;;;;;;;;12.50;99.90;;;;;;5093254;28;20018;-83
2024/01/10 00:16:07;;;;;;;;;;;12.40;99.90;;;;;;5092618;28;20224;-81
2024/01/10 00:18:33;;;;;;;;;;;12.30;99.90;;;;;;5095124;28;20329;-83
2024/01/10 00:20:59;;;;;;;;;;;12.30;99.90;;;;;;5094930;28;19920;-81
2024/01/10 00:23:25;;;;;;;;;;;12.30;99.90;;;;;;5092803;28;19908;-82
2024/01/10 00:25:51;;;;;;;;;;;12.20;99.90;;;;;;5093034;28;19955;-81
2024/01/10 00:28:17;;;;;;;;;;;12.10;99.90;;;;;;5091423;28;20376;-82
2024/01/10 00:30:44;;;;;;;;;;;11.90;99.90;;;;;;5092901;28;19908;-82
2024/01/10 00:33:11;;;;;;;;;;;11.80;99.90;;;;;;5091055;28;19947;-83
2024/01/10 00:35:37;;;;;;;;;;;11.70;99.90;;;;;;5092531;28;19916;-83
2024/01/10 00:38:03;;;;;;;;;;;11.60;99.90;;;;;;5090857;28;19908;-83
2024/01/10 00:40:29;;;;;;;;;;;11.60;99.90;;;;;;5092095;28;19966;-82
2024/01/10 00:42:54;;;;;;;;;;;11.50;99.90;;;;;;5092600;28;19920;-82
2024/01/10 00:45:20;;;;;;;;;;;11.40;99.90;;;;;;5092393;28;19909;-83
2024/01/10 00:47:48;;;;;;;;;;;11.50;99.90;;;;;;5090924;28;19988;-82
2024/01/10 00:50:14;;;;;;;;;;;11.40;99.90;;;;;;5092236;28;19920;-82
2024/01/10 00:52:40;;;;;;;;;;;11.40;99.90;;;;;;5092107;28;19916;-82
2024/01/10 00:55:06;;;;;;;;;;;11.50;99.90;;;;;;5090600;28;19908;-82
2024/01/10 00:57:32;;;;;;;;;;;11.40;99.90;;;;;;5090644;28;19908;-82
2024/01/10 00:59:57;;;;;;;;;;;11.40;99.90;;;;;;5090674;28;19922;-81
2024/01/10 01:02:24;;;;;;;;;;;11.30;99.90;;;;;;5092064;28;19908;-81
2024/01/10 01:04:50;;;;;;;;;;;11.30;99.90;;;;;;5091021;28;19908;-80
2024/01/10 01:07:16;;;;;;;;;;;11.30;99.90;;;;;;5089280;28;19934;-83
2024/01/10 01:09:41;;;;;;;;;;;11.30;99.90;;;;;;5091067;28;19979;-83
2024/01/10 01:12:07;;;;;;;;;;;11.20;99.90;;;;;;5091116;28;20319;-82
2024/01/10 01:14:33;;;;;;;;;;;11.20;99.90;;;;;;5091030;28;20258;-82
2024/01/10 01:16:59;;;;;;;;;;;11.20;99.90;;;;;;5089022;28;19957;-81
2024/01/10 01:19:25;;;;;;;;;;;11.20;99.90;;;;;;5090577;28;19912;-82
2024/01/10 01:21:52;;;;;;;;;;;11.20;99.90;;;;;;5090567;28;19915;-82
2024/01/10 01:24:18;;;;;;;;;;;11.20;99.90;;;;;;5090860;28;19908;-82
2024/01/10 01:26:43;;;;;;;;;;;11.20;99.90;;;;;;5089097;28;19924;-83
2024/01/10 01:29:09;;;;;;;;;;;11.10;99.90;;;;;;5088986;28;19961;-83
2024/01/10 01:31:35;;;;;;;;;;;11.20;99.90;;;;;;5090465;28;20354;-83
2024/01/10 01:34:01;;;;;;;;;;;11.10;99.90;;;;;;5089030;28;19916;-83
2024/01/10 01:36:27;;;;;;;;;;;11.10;99.90;;;;;;5090483;28;19913;-82
2024/01/10 01:38:53;;;;;;;;;;;11.00;99.90;;;;;;5090351;28;20036;-82
2024/01/10 01:41:21;;;;;;;;;;;11.00;99.90;;;;;;5088253;28;20873;-83
2024/01/10 01:43:48;;;;;;;;;;;10.90;99.90;;;;;;5092225;28;20303;-83
2024/01/10 01:46:14;;;;;;;;;;;10.90;99.90;;;;;;5092363;28;19915;-83
2024/01/10 01:48:40;;;;;;;;;;;10.90;99.90;;;;;;5089338;28;19987;-82
2024/01/10 01:51:07;;;;;;;;;;;10.90;99.90;;;;;;5091073;28;19986;-83
2024/01/10 01:53:34;;;;;;;;;;;11.00;99.90;;;;;;5093689;28;20327;-82
2024/01/10 01:56:03;;;;;;;;;;;11.00;99.90;;;;;;5094598;28;19931;-82
2024/01/10 01:58:29;;;;;;;;;;;11.10;99.90;;;;;;5094918;28;19912;-82
2024/01/10 02:00:55;;;;;;;;;;;11.10;99.90;;;;;;5094800;28;19977;-81
2024/01/10 02:03:21;;;;;;;;;;;11.10;99.90;;;;;;5094454;28;19999;-82
2024/01/10 02:05:47;;;;;;;;;;;11.10;99.90;;;;;;5094520;28;19959;-81
2024/01/10 02:08:13;;;;;;;;;;;11.10;99.90;;;;;;5092563;28;20275;-81
2024/01/10 02:10:39;;;;;;;;;;;11.10;99.90;;;;;;5092692;28;19912;-81
2024/01/10 02:13:08;;;;;;;;;;;11.10;99.90;;;;;;5094990;28;19908;-82
2024/01/10 02:15:35;;;;;;;;;;;11.20;99.90;;;;;;5092681;28;19908;-82
2024/01/10 02:18:01;;;;;;;;;;;11.20;99.90;;;;;;5092883;28;20371;-82
2024/01/10 02:20:27;;;;;;;;;;;11.10;99.90;;;;;;5092661;28;19916;-82
2024/01/10 02:22:53;;;;;;;;;;;11.10;99.90;;;;;;5092219;28;20304;-81
2024/01/10 02:25:18;;;;;;;;;;;11.10;99.90;;;;;;5094142;28;19912;-83
2024/01/10 02:27:44;;;;;;;;;;;11.10;99.90;;;;;;5092535;28;19959;-81
2024/01/10 02:30:11;;;;;;;;;;;11.10;99.90;;;;;;5093971;28;20023;-83
2024/01/10 02:32:37;;;;;;;;;;;11.00;99.90;;;;;;5094549;28;19908;-83
2024/01/10 02:35:03;;;;;;;;;;;11.00;99.90;;;;;;5093923;28;19980;-82
2024/01/10 02:37:29;;;;;;;;;;;11.00;99.90;;;;;;5091999;28;19916;-82
2024/01/10 02:39:55;;;;;;;;;;;11.00;99.90;;;;;;5091905;28;19946;-83
2024/01/10 02:42:21;;;;;;;;;;;11.00;99.90;;;;;;5093671;28;19912;-81
2024/01/10 02:44:47;;;;;;;;;;;11.00;99.90;;;;;;5093706;28;20066;-79
2024/01/10 02:47:13;;;;;;;;;;;11.00;99.90;;;;;;5093773;28;19929;-81
2024/01/10 02:49:39;;;;;;;;;;;11.00;99.90;;;;;;5091802;28;19927;-83
2024/01/10 02:52:05;;;;;;;;;;;11.00;99.90;;;;;;5093661;28;19916;-82
2024/01/10 02:54:30;;;;;;;;;;;11.00;99.90;;;;;;5092460;28;19944;-82
2024/01/10 02:56:56;;;;;;;;;;;11.00;99.90;;;;;;5092320;28;19973;-82
2024/01/10 02:59:22;;;;;;;;;;;10.90;99.90;;;;;;5092231;28;20391;-82
2024/01/10 03:01:48;;;;;;;;;;;10.90;99.90;;;;;;5091838;28;19927;-82
2024/01/10 03:04:14;;;;;;;;;;;10.90;99.90;;;;;;5093508;28;20028;-80
2024/01/10 03:06:41;;;;;;;;;;;10.80;99.90;;;;;;5093457;28;19908;-83
2024/01/10 03:09:07;;;;;;;;;;;10.70;99.90;;;;;;5094472;28;19955;-82
2024/01/10 03:11:35;;;;;;;;;;;10.60;99.90;;;;;;5094717;28;19914;-83
2024/01/10 03:14:01;;;;;;;;;;;10.60;99.90;;;;;;5093111;28;19908;-82
2024/01/10 03:16:27;;;;;;;;;;;10.60;99.90;;;;;;5094274;28;19907;-82
2024/01/10 03:18:53;;;;;;;;;;;10.50;99.90;;;;;;5091903;28;19930;-82
2024/01/10 03:21:24;;;;;;;;;;;10.60;99.90;;;;;;5092713;28;19920;-82
2024/01/10 03:23:53;;;;;;;;;;;10.60;99.90;;;;;;5091839;28;19912;-83
2024/01/10 03:26:19;;;;;;;;;;;10.60;99.90;;;;;;5093287;28;19931;-83
2024/01/10 03:28:44;;;;;;;;;;;10.60;99.90;;;;;;5094029;28;19908;-82
2024/01/10 03:31:11;;;;;;;;;;;10.50;99.90;;;;;;5094804;28;19908;-82
2024/01/10 03:33:37;;;;;;;;;;;10.50;99.90;;;;;;5089934;28;19962;-83
2024/01/10 03:36:03;;;;;;;;;;;10.40;99.90;;;;;;5073988;28;19924;-82
2024/01/10 03:38:29;;;;;;;;;;;10.40;99.90;;;;;;5071780;28;19924;-83
2024/01/10 03:40:55;;;;;;;;;;;10.40;99.90;;;;;;5073100;28;19964;-82
2024/01/10 03:43:21;;;;;;;;;;;10.40;99.90;;;;;;5071952;28;19908;-82
2024/01/10 03:45:46;;;;;;;;;;;10.40;99.90;;;;;;5072499;28;20345;-83
2024/01/10 03:48:12;;;;;;;;;;;10.40;99.90;;;;;;5072008;28;19913;-83
2024/01/10 03:50:38;;;;;;;;;;;10.40;99.90;;;;;;5072406;28;19915;-83
2024/01/10 03:53:04;;;;;;;;;;;10.40;99.90;;;;;;5071633;28;19916;-82
2024/01/10 03:55:30;;;;;;;;;;;10.40;99.90;;;;;;5070662;28;20345;-83
2024/01/10 03:57:56;;;;;;;;;;;10.50;99.90;;;;;;5071380;28;20324;-83
2024/01/10 04:00:22;;;;;;;;;;;10.50;99.90;;;;;;5071004;28;19956;-83
2024/01/10 04:02:48;;;;;;;;;;;10.50;99.90;;;;;;5072578;28;19916;-83
2024/01/10 04:05:14;;;;;;;;;;;10.50;99.90;;;;;;5090013;28;19993;-83
2024/01/10 04:07:45;;;;;;;;;;;10.50;99.90;;;;;;5091727;28;19987;-81
2024/01/10 04:10:13;;;;;;;;;;;10.50;99.90;;;;;;5093296;28;19930;-82
2024/01/10 04:12:40;;;;;;;;;;;10.40;99.90;;;;;;5092787;28;19908;-83
2024/01/10 04:15:07;;;;;;;;;;;10.40;99.90;;;;;;5090919;28;20093;-81
2024/01/10 04:17:33;;;;;;;;;;;10.40;99.90;;;;;;5093087;28;20105;-82
2024/01/10 04:19:59;;;;;;;;;;;10.40;99.90;;;;;;5091170;28;20462;-83
2024/01/10 04:22:25;;;;;;;;;;;10.50;99.90;;;;;;5091218;28;19908;-83
2024/01/10 04:24:51;;;;;;;;;;;10.40;99.90;;;;;;5093299;28;20038;-83
2024/01/10 04:27:18;;;;;;;;;;;10.40;99.90;;;;;;5093506;28;19908;-82
2024/01/10 04:29:45;;;;;;;;;;;10.50;99.90;;;;;;5092126;28;19908;-83
2024/01/10 04:32:10;;;;;;;;;;;10.50;99.90;;;;;;5093321;28;19916;-83
2024/01/10 04:34:36;;;;;;;;;;;10.50;99.90;;;;;;5093008;28;20261;-82
2024/01/10 04:37:02;;;;;;;;;;;10.50;99.90;;;;;;5091698;28;19915;-83
2024/01/10 04:39:29;;;;;;;;;;;10.60;99.90;;;;;;5094172;28;20041;-84
2024/01/10 04:41:55;;;;;;;;;;;10.60;99.90;;;;;;5091815;28;19939;-83
2024/01/10 04:44:21;;;;;;;;;;;10.60;99.90;;;;;;5093527;28;20356;-82
2024/01/10 04:46:47;;;;;;;;;;;10.60;99.90;;;;;;5094407;28;19943;-83
2024/01/10 04:49:13;;;;;;;;;;;10.60;99.90;;;;;;5092543;28;20432;-83
2024/01/10 04:51:40;;;;;;;;;;;10.50;99.90;;;;;;5091538;28;20287;-81
2024/01/10 04:54:05;;;;;;;;;;;10.50;99.90;;;;;;5094118;28;19915;-81
2024/01/10 04:56:31;;;;;;;;;;;10.40;99.90;;;;;;5092892;28;19908;-81
2024/01/10 04:58:57;;;;;;;;;;;10.30;99.90;;;;;;5092639;28;19908;-81
2024/01/10 05:01:23;;;;;;;;;;;10.30;99.90;;;;;;5093916;28;19985;-83
2024/01/10 05:03:49;;;;;;;;;;;10.30;99.90;;;;;;5094166;28;19947;-83
2024/01/10 05:06:15;;;;;;;;;;;10.30;99.90;;;;;;5094038;28;19912;-82
2024/01/10 05:08:40;;;;;;;;;;;10.30;99.90;;;;;;5093950;28;19966;-82
2024/01/10 05:11:06;;;;;;;;;;;10.40;99.90;;;;;;5092294;28;20356;-82
2024/01/10 05:13:32;;;;;;;;;;;10.40;99.90;;;;;;5092065;28;20007;-82
2024/01/10 05:15:58;;;;;;;;;;;10.40;99.90;;;;;;5093532;28;19962;-82
2024/01/10 05:18:24;;;;;;;;;;;10.40;99.90;;;;;;5092852;28;19974;-82
2024/01/10 05:20:50;;;;;;;;;;;10.40;99.90;;;;;;5094073;28;20344;-83
2024/01/10 05:23:15;;;;;;;;;;;10.40;99.90;;;;;;5093943;28;19908;-82
2024/01/10 05:25:41;;;;;;;;;;;10.40;99.90;;;;;;5092622;28;19908;-82
2024/01/10 05:28:07;;;;;;;;;;;10.40;99.90;;;;;;5093125;28;20368;-82
2024/01/10 05:30:33;;;;;;;;;;;10.40;99.90;;;;;;5094105;28;19996;-81
2024/01/10 05:32:59;;;;;;;;;;;10.40;99.90;;;;;;5093896;28;19916;-82
2024/01/10 05:35:28;;;;;;;;;;;10.50;99.90;;;;;;5093774;28;19908;-82
2024/01/10 05:37:54;;;;;;;;;;;10.50;99.90;;;;;;5093737;28;19912;-81
2024/01/10 05:40:21;;;;;;;;;;;10.60;99.90;;;;;;5093646;28;19924;-82
2024/01/10 05:42:47;;;;;;;;;;;10.60;99.90;;;;;;5093998;28;19908;-83
2024/01/10 05:45:13;;;;;;;;;;;10.60;99.90;;;;;;5093816;28;19934;-83
2024/01/10 05:47:39;;;;;;;;;;;10.70;99.90;;;;;;5093776;28;19908;-82
2024/01/10 05:50:08;;;;;;;;;;;10.80;99.90;;;;;;5094286;28;19954;-84
2024/01/10 05:52:34;;;;;;;;;;;10.80;99.90;;;;;;5092108;28;19908;-82
2024/01/10 05:55:02;;;;;;;;;;;10.80;99.90;;;;;;5093787;28;19963;-83
2024/01/10 05:57:28;;;;;;;;;;;10.90;99.90;;;;;;5093465;28;19944;-83
2024/01/10 05:59:56;;;;;;;;;;;10.90;99.90;;;;;;5093850;28;19939;-83
2024/01/10 06:02:25;;;;;;;;;;;11.00;99.90;;;;;;5094189;28;19947;-83
2024/01/10 06:04:53;;;;;;;;;;;11.00;99.90;;;;;;5094061;28;19908;-80
2024/01/10 06:07:20;;;;;;;;;;;10.90;99.90;;;;;;5093414;28;19977;-81
2024/01/10 06:09:46;;;;;;;;;;;10.90;99.90;;;;;;5093798;28;19954;-81
2024/01/10 06:12:13;;;;;;;;;;;10.90;99.90;;;;;;5093759;28;19916;-82
2024/01/10 06:14:38;;;;;;;;;;;10.90;99.90;;;;;;5094274;28;19909;-82
2024/01/10 06:17:04;;;;;;;;;;;10.80;99.90;;;;;;5091710;28;19912;-82
2024/01/10 06:19:33;;;;;;;;;;;10.70;99.90;;;;;;5093449;28;19919;-82
2024/01/10 06:21:59;;;;;;;;;;;10.70;99.90;;;;;;5093028;28;19916;-82
2024/01/10 06:24:26;;;;;;;;;;;10.70;99.90;;;;;;5091618;28;19997;-80
2024/01/10 06:26:52;;;;;;;;;;;10.70;99.90;;;;;;5093128;28;19912;-81
2024/01/10 06:29:18;;;;;;;;;;;10.70;99.90;;;;;;5091170;28;19922;-82
2024/01/10 06:31:44;;;;;;;;;;;10.80;99.90;;;;;;5092727;28;20058;-82
2024/01/10 06:34:10;;;;;;;;;;;10.90;99.90;;;;;;5092602;28;19992;-82
2024/01/10 06:36:36;;;;;;;;;;;10.90;99.90;;;;;;5092583;28;19908;-82
2024/01/10 06:39:02;;;;;;;;;;;10.80;99.90;;;;;;5092482;28;19920;-82
2024/01/10 06:41:28;;;;;;;;;;;10.80;99.90;;;;;;5095503;28;19924;-83
2024/01/10 06:43:54;;;;;;;;;;;11.00;99.90;;;;;;5095491;28;19927;-82
2024/01/10 06:46:20;;;;;;;;;;;11.30;99.90;;;;;;5096372;28;19935;-81
2024/01/10 06:48:47;;;;;;;;;;;11.70;99.90;;;;;;5096150;28;19938;-83
2024/01/10 06:51:13;;;;;;;;;;;12.10;99.90;;;;;;5094797;28;20026;-83
2024/01/10 06:53:39;;;;;;;;;;;12.40;99.90;;;;;;5094810;28;19916;-83
2024/01/10 06:56:05;;;;;;;;;;;12.70;99.90;;;;;;5096935;28;19908;-84
2024/01/10 06:58:31;;;;;;;;;;;13.00;99.90;;;;;;5097326;28;19915;-84
2024/01/10 07:00:58;;;;;;;;;;;13.40;99.90;;;;;;5098474;28;19916;-83
2024/01/10 07:03:23;;;;;;;;;;;13.80;99.90;;;;;;5095478;28;19908;-82
2024/01/10 07:05:49;;;;;;;;;;;14.00;99.90;;;;;;5095592;28;20249;-84
2024/01/10 07:08:16;;;;;;;;;;;14.20;99.90;;;;;;5095238;28;19908;-81
2024/01/10 07:10:42;;;;;;;;;;;14.30;99.90;;;;;;5094732;28;19909;-83
2024/01/10 07:13:08;;;;;;;;;;;14.20;99.90;;;;;;5095682;28;19998;-83
2024/01/10 07:15:34;;;;;;;;;;;14.10;99.90;;;;;;5097536;28;20303;-83
2024/01/10 07:18:00;;;;;;;;;;;14.10;99.90;;;;;;5096739;28;19916;-87
2024/01/10 07:20:29;;;;;;;;;;;13.90;99.90;;;;;;5095760;28;19939;-82
2024/01/10 07:22:55;;;;;;;;;;;13.80;99.90;;;;;;5095702;28;19915;-87
2024/01/10 07:25:25;;;;;;;;;;;13.80;99.90;;;;;;5095993;28;19919;-82
2024/01/10 07:27:51;;;;;;;;;;;13.90;99.90;;;;;;5096439;28;19913;-83
2024/01/10 07:30:17;;;;;;;;;;;13.90;99.90;;;;;;5094918;28;19969;-84
2024/01/10 07:32:43;;;;;;;;;;;13.90;99.90;;;;;;5095667;28;19945;-83
2024/01/10 07:35:09;;;;;;;;;;;14.00;99.90;;;;;;5097912;28;19954;-85
2024/01/10 07:37:39;;;;;;;;;;;14.20;99.90;;;;;;5096558;28;19908;-82
2024/01/10 07:40:07;;;;;;;;;;;14.30;99.90;;;;;;5095022;28;19920;-86
2024/01/10 07:42:33;;;;;;;;;;;14.10;99.90;;;;;;5095346;28;19929;-85
2024/01/10 07:44:59;;;;;;;;;;;14.10;99.90;;;;;;5103865;28;19908;-80
2024/01/10 07:47:25;;;;;;;;;;;14.20;99.90;;;;;;5099954;28;20385;-81
2024/01/10 07:49:51;;;;;;;;;;;14.40;99.90;;;;;;5094986;28;19913;-83
2024/01/10 07:52:17;;;;;;;;;;;14.70;99.90;;;;;;5095868;28;20057;-83
2024/01/10 07:54:44;;;;;;;;;;;14.70;99.90;;;;;;5095068;28;20283;-83
2024/01/10 07:57:09;;;;;;;;;;;14.50;99.90;;;;;;5095887;28;19912;-84
2024/01/10 07:59:35;;;;;;;;;;;14.30;99.90;;;;;;5094223;28;19914;-83
2024/01/10 08:02:01;;;;;;;;;;;14.50;99.90;;;;;;5093915;28;19916;-81
2024/01/10 08:04:27;;;;;;;;;;;14.60;99.90;;;;;;5095110;28;20360;-84
2024/01/10 08:06:53;;;;;;;;;;;14.50;99.90;;;;;;5094292;28;19915;-85
2024/01/10 08:09:23;;;;;;;;;;;14.50;99.90;;;;;;5094277;28;19947;-82
2024/01/10 08:11:49;;;;;;;;;;;14.70;99.90;;;;;;5095550;28;19999;-82
2024/01/10 08:14:15;;;;;;;;;;;14.80;99.90;;;;;;5093930;28;19955;-84
2024/01/10 08:16:42;;;;;;;;;;;14.90;99.90;;;;;;5093804;28;19912;-83
2024/01/10 08:19:09;;;;;;;;;;;14.80;99.90;;;;;;5093722;28;19961;-84
2024/01/10 08:21:35;;;;;;;;;;;14.90;99.90;;;;;;5095068;28;19924;-83
2024/01/10 08:24:01;;;;;;;;;;;15.10;99.90;;;;;;5095177;28;20287;-83
2024/01/10 08:26:28;;;;;;;;;;;15.20;99.90;;;;;;5095241;28;19939;-83
2024/01/10 08:28:55;;;;;;;;;;;15.20;99.90;;;;;;5093308;28;19908;-84
2024/01/10 08:31:22;;;;;;;;;;;15.20;99.90;;;;;;5095558;28;19947;-82
2024/01/10 08:33:48;;;;;;;;;;;15.20;99.90;;;;;;5090535;28;19908;-83
2024/01/10 08:36:14;;;;;;;;;;;15.30;99.90;;;;;;5074957;28;19963;-84
2024/01/10 08:38:43;;;;;;;;;;;15.30;99.90;;;;;;5074290;28;19920;-83
2024/01/10 08:41:11;;;;;;;;;;;15.30;99.90;;;;;;5074717;28;19921;-82
2024/01/10 08:43:39;;;;;;;;;;;15.30;99.90;;;;;;5073130;28;19908;-83
2024/01/10 08:46:04;;;;;;;;;;;15.00;99.90;;;;;;5074117;28;19931;-84
2024/01/10 08:48:31;;;;;;;;;;;15.10;99.90;;;;;;5074389;28;19913;-84
2024/01/10 08:50:57;;;;;;;;;;;15.10;99.90;;;;;;5074495;28;19919;-85
2024/01/10 08:53:24;;;;;;;;;;;15.10;99.90;;;;;;5074848;28;19908;-83
2024/01/10 08:55:50;;;;;;;;;;;14.90;99.90;;;;;;5074436;28;19961;-83
2024/01/10 08:58:16;;;;;;;;;;;14.80;99.90;;;;;;5074252;28;20010;-83
2024/01/10 09:00:41;;;;;;;;;;;14.70;99.90;;;;;;5073559;28;19916;-82
2024/01/10 09:03:07;;;;;;;;;;;14.50;99.90;;;;;;5074109;28;20324;-83
2024/01/10 09:05:33;;;;;;;;;;;14.50;99.90;;;;;;5092709;28;19915;-82
2024/01/10 09:07:59;;;;;;;;;;;14.60;99.90;;;;;;5092777;28;19912;-83
2024/01/10 09:10:27;;;;;;;;;;;14.80;99.90;;;;;;5092994;28;19908;-84
2024/01/10 09:12:53;;;;;;;;;;;14.80;99.90;;;;;;5094792;28;19915;-83
2024/01/10 09:15:19;;;;;;;;;;;15.00;99.90;;;;;;5094132;28;20313;-83
2024/01/10 09:17:45;;;;;;;;;;;15.00;99.90;;;;;;5092548;28;20261;-83
2024/01/10 09:20:12;;;;;;;;;;;15.20;99.90;;;;;;5094168;28;20094;-84
2024/01/10 09:22:39;;;;;;;;;;;15.40;99.90;;;;;;5092042;28;19995;-83
2024/01/10 09:25:05;;;;;;;;;;;15.50;99.90;;;;;;5091684;28;19964;-83
2024/01/10 09:27:34;;;;;;;;;;;15.50;99.90;;;;;;5093636;28;19912;-85
2024/01/10 09:30:03;;;;;;;;;;;15.20;99.90;;;;;;5093192;28;19931;-83
2024/01/10 09:32:29;;;;;;;;;;;15.10;99.90;;;;;;5093031;28;20406;-83
2024/01/10 09:34:56;;;;;;;;;;;15.10;99.90;;;;;;5093543;28;19908;-85
2024/01/10 09:37:22;;;;;;;;;;;15.20;99.90;;;;;;5091595;28;20252;-77
2024/01/10 09:39:48;;;;;;;;;;;15.30;99.90;;;;;;5092541;28;20352;-83
2024/01/10 09:42:14;;;;;;;;;;;15.20;99.90;;;;;;5093075;28;19918;-82
2024/01/10 09:44:41;;;;;;;;;;;15.20;99.90;;;;;;5092504;28;19954;-82
2024/01/10 09:47:07;;;;;;;;;;;15.20;99.90;;;;;;5092736;28;19908;-82
2024/01/10 09:49:33;;;;;;;;;;;15.20;99.90;;;;;;5092617;28;19908;-80
2024/01/10 09:52:01;;;;;;;;;;;15.10;99.90;;;;;;5092327;28;20379;-80
2024/01/10 09:54:30;;;;;;;;;;;15.20;99.90;;;;;;5093279;28;19908;-83
2024/01/10 09:56:59;;;;;;;;;;;15.20;99.90;;;;;;5093306;28;19927;-83
2024/01/10 09:59:25;;;;;;;;;;;15.30;99.90;;;;;;5093045;28;19955;-84
2024/01/10 10:01:54;;;;;;;;;;;15.40;99.90;;;;;;5093874;28;20335;-84
2024/01/10 10:04:20;;;;;;;;;;;15.40;99.90;;;;;;5091994;28;19908;-82
2024/01/10 10:06:46;;;;;;;;;;;15.40;99.90;;;;;;5093383;28;20357;-86
2024/01/10 10:09:12;;;;;;;;;;;15.30;99.90;;;;;;5093484;28;19924;-81
2024/01/10 10:11:38;;;;;;;;;;;15.30;99.90;;;;;;5093219;28;19912;-79
2024/01/10 10:14:16;;;;;;;;;;;15.40;99.90;;;;;;5095346;28;19916;-81
2024/01/10 10:16:42;;;;;;;;;;;15.40;99.90;;;;;;5097442;28;19908;-80
2024/01/10 10:19:09;;;;;;;;;;;15.40;99.90;;;;;;5095497;28;19915;-81
2024/01/10 10:21:35;;;;;;;;;;;15.40;99.90;;;;;;5096828;28;19961;-80
2024/01/10 10:24:03;;;;;;;;;;;15.20;99.90;;;;;;5096588;28;19998;-79
2024/01/10 10:26:32;;;;;;;;;;;15.30;99.90;;;;;;5096886;28;19908;-80
2024/01/10 10:28:58;;;;;;;;;;;15.30;99.90;;;;;;5096602;28;19996;-81
2024/01/10 10:31:24;;;;;;;;;;;15.40;99.90;;;;;;5096603;28;19947;-82
2024/01/10 10:33:51;;;;;;;;;;;15.40;99.90;;;;;;5096388;28;20305;-80
2024/01/10 10:36:17;;;;;;;;;;;15.40;99.90;;;;;;5096772;28;19912;-82
2024/01/10 10:38:43;;;;;;;;;;;15.50;99.90;;;;;;5096769;28;20007;-82
2024/01/10 10:41:10;;;;;;;;;;;15.60;99.90;;;;;;5098477;28;19959;-81
2024/01/10 10:43:37;;;;;;;;;;;15.80;99.90;;;;;;5096754;28;19908;-81
2024/01/10 10:46:07;;;;;;;;;;;15.90;99.90;;;;;;5096942;28;19908;-81
2024/01/10 10:48:34;;;;;;;;;;;15.70;99.90;;;;;;5094870;28;20360;-80
2024/01/10 10:51:03;;;;;;;;;;;15.40;99.90;;;;;;5096185;28;19919;-81
2024/01/10 10:53:30;;;;;;;;;;;15.50;99.90;;;;;;5096280;28;19908;-81
2024/01/10 10:55:57;;;;;;;;;;;15.60;99.90;;;;;;5096450;28;19991;-82
2024/01/10 10:58:22;;;;;;;;;;;15.60;99.90;;;;;;5094797;28;19908;-81
2024/01/10 11:00:49;;;;;;;;;;;15.50;99.90;;;;;;5096348;28;20042;-82
2024/01/10 11:03:16;;;;;;;;;;;15.50;99.90;;;;;;5096603;28;19908;-80
2024/01/10 11:05:42;;;;;;;;;;;15.50;99.90;;;;;;5096374;28;19908;-81
2024/01/10 11:08:10;;;;;;;;;;;15.40;99.90;;;;;;5095162;28;19916;-84
2024/01/10 11:10:38;;;;;;;;;;;15.40;99.90;;;;;;5095306;28;19931;-81
2024/01/10 11:13:24;;;;;;;;;;;15.40;99.90;;;;;;5083208;28;20021;-82
2024/01/10 11:16:08;;;;;;;;;;;15.10;99.90;;;;;;5017467;28;20235;-81
2024/01/10 11:18:54;;;;;;;;;;;15.00;99.90;;;;;;5034297;28;20436;-81
2024/01/10 11:21:38;;;;;;;;;;;15.00;99.90;;;;;;5014634;28;20038;-84
2024/01/10 11:24:05;;;;;;;;;;;15.00;99.90;;;;;;5017219;28;19936;-81
2024/01/10 11:26:32;;;;;;;;;;;15.00;99.90;;;;;;5033551;28;19920;-81
2024/01/10 11:28:57;;;;;;;;;;;15.10;99.90;;;;;;5034618;28;19909;-81
2024/01/10 11:31:30;;;;;;;;;;;15.10;99.90;;;;;;5034319;28;19909;-81
2024/01/10 11:34:00;;;;;;;;;;;15.10;99.90;;;;;;5033626;28;20324;-81
2024/01/10 11:36:26;;;;;;;;;;;15.10;99.90;;;;;;5033937;28;19909;-80
2024/01/10 11:38:56;;;;;;;;;;;15.10;99.90;;;;;;5033147;28;19917;-82
2024/01/10 11:41:23;;;;;;;;;;;15.10;99.90;;;;;;5034116;28;20361;-81
2024/01/10 11:44:08;;;;;;;;;;;15.20;99.90;;;;;;5033797;28;19944;-82
2024/01/10 11:46:40;;;;;;;;;;;15.30;99.90;;;;;;5037056;28;20371;-81
2024/01/10 11:49:09;;;;;;;;;;;15.40;99.90;;;;;;5072794;28;19909;-81
2024/01/10 11:51:36;;;;;;;;;;;15.50;99.90;;;;;;5075195;28;19908;-83
2024/01/10 11:54:02;;;;;;;;;;;15.50;99.90;;;;;;5073696;28;20354;-81
2024/01/10 11:56:41;;;;;;;;;;;15.70;99.90;;;;;;5074520;28;19915;-81
2024/01/10 11:59:08;;;;;;;;;;;15.70;99.90;;;;;;5074601;28;19935;-81
2024/01/10 12:01:35;;;;;;;;;;;15.80;99.90;;;;;;5072572;28;19938;-80
2024/01/10 12:04:02;;;;;;;;;;;15.90;99.90;;;;;;5079963;28;19919;-80
2024/01/10 12:06:28;;;;;;;;;;;15.90;99.90;;;;;;5093098;28;19967;-82
2024/01/10 12:08:53;;;;;;;;;;;15.90;99.90;;;;;;5094515;28;19908;-79
2024/01/10 12:11:19;;;;;;;;;;;15.90;99.90;;;;;;5095117;28;20352;-82
2024/01/10 12:13:45;;;;;;;;;;;16.10;99.90;;;;;;5094818;28;19961;-82
2024/01/10 12:16:14;;;;;;;;;;;16.10;99.90;;;;;;5094904;28;20026;-82
2024/01/10 12:18:40;;;;;;;;;;;16.20;99.90;;;;;;5095988;28;19920;-84
2024/01/10 12:21:08;;;;;;;;;;;16.10;99.90;;;;;;5097128;28;19916;-84
2024/01/10 12:23:38;;;;;;;;;;;16.20;99.90;;;;;;5095726;28;19914;-83
2024/01/10 12:26:07;;;;;;;;;;;16.30;99.90;;;;;;5096263;28;19942;-84
2024/01/10 12:28:34;;;;;;;;;;;16.40;99.90;;;;;;5095742;28;19908;-84
2024/01/10 12:30:59;;;;;;;;;;;16.50;99.90;;;;;;5096331;28;19947;-82
2024/01/10 12:33:25;;;;;;;;;;;16.40;99.90;;;;;;5094216;28;20228;-81
2024/01/10 12:36:10;;;;;;;;;;;16.30;99.90;;;;;;5095080;28;20308;-83
2024/01/10 12:38:36;;;;;;;;;;;16.30;99.90;;;;;;5094857;28;19908;-82
2024/01/10 12:41:03;;;;;;;;;;;16.40;99.90;;;;;;5094831;28;19965;-82
2024/01/10 12:43:30;;;;;;;;;;;16.40;99.90;;;;;;5094834;28;19916;-81
2024/01/10 12:46:06;;;;;;;;;;;16.70;99.90;;;;;;5094780;28;19916;-81
2024/01/10 12:48:33;;;;;;;;;;;16.70;99.90;;;;;;5094769;28;20287;-81
2024/01/10 12:51:03;;;;;;;;;;;16.60;99.90;;;;;;5093478;28;19937;-81
2024/01/10 12:53:28;;;;;;;;;;;16.60;99.90;;;;;;5095175;28;19915;-81
2024/01/10 12:55:55;;;;;;;;;;;16.60;99.90;;;;;;5093151;28;19908;-82
2024/01/10 12:58:21;;;;;;;;;;;16.60;99.90;;;;;;5094891;28;20314;-82
2024/01/10 13:00:46;;;;;;;;;;;16.60;99.90;;;;;;5092837;28;20364;-82
2024/01/10 13:03:13;;;;;;;;;;;16.50;99.90;;;;;;5094201;28;19912;-82
2024/01/10 13:05:39;;;;;;;;;;;16.50;99.90;;;;;;5094535;28;19908;-81
2024/01/10 13:08:05;;;;;;;;;;;16.40;99.90;;;;;;5094100;28;20390;-82
2024/01/10 13:10:31;;;;;;;;;;;16.40;99.90;;;;;;5094196;28;19912;-81
2024/01/10 13:12:57;;;;;;;;;;;16.40;99.90;;;;;;5092689;28;20330;-82
2024/01/10 13:15:23;;;;;;;;;;;16.40;99.90;;;;;;5092824;28;19940;-81
2024/01/10 13:17:49;;;;;;;;;;;16.20;99.90;;;;;;5094132;28;20340;-81
2024/01/10 13:20:15;;;;;;;;;;;16.00;99.90;;;;;;5092544;28;19911;-81
2024/01/10 13:22:40;;;;;;;;;;;16.00;99.90;;;;;;5092948;28;19912;-81
2024/01/10 13:25:06;;;;;;;;;;;15.90;99.90;;;;;;5094509;28;19961;-82
2024/01/10 13:27:32;;;;;;;;;;;15.80;99.90;;;;;;5094215;28;20348;-82
2024/01/10 13:29:58;;;;;;;;;;;15.70;99.90;;;;;;5094533;28;19910;-82
2024/01/10 13:32:25;;;;;;;;;;;15.70;99.90;;;;;;5094692;28;19911;-81
2024/01/10 13:34:51;;;;;;;;;;;15.70;99.90;;;;;;5093908;28;19997;-82
2024/01/10 13:37:17;;;;;;;;;;;15.70;99.90;;;;;;5092554;28;19970;-82
2024/01/10 13:39:43;;;;;;;;;;;15.70;99.90;;;;;;5093895;28;19982;-82
2024/01/10 13:42:11;;;;;;;;;;;15.60;99.90;;;;;;5094128;28;19923;-82
2024/01/10 13:44:38;;;;;;;;;;;15.60;99.90;;;;;;5093909;28;19908;-83
2024/01/10 13:47:04;;;;;;;;;;;15.50;99.90;;;;;;5094092;28;20301;-82
2024/01/10 13:49:30;;;;;;;;;;;15.50;99.90;;;;;;5092297;28;19954;-82
2024/01/10 13:51:56;;;;;;;;;;;15.40;99.90;;;;;;5093236;28;19999;-82
2024/01/10 13:54:23;;;;;;;;;;;15.40;99.90;;;;;;5091472;28;20376;-82
2024/01/10 13:56:49;;;;;;;;;;;15.20;99.90;;;;;;5093687;28;19943;-81
2024/01/10 13:59:15;;;;;;;;;;;15.10;99.90;;;;;;5092946;28;19908;-81
2024/01/10 14:01:41;;;;;;;;;;;15.20;99.90;;;;;;5092977;28;20545;-81
2024/01/10 14:04:07;;;;;;;;;;;15.10;99.90;;;;;;5093034;28;20288;-82
2024/01/10 14:06:33;;;;;;;;;;;15.10;99.90;;;;;;5092990;28;19916;-82
2024/01/10 14:08:58;;;;;;;;;;;15.00;99.90;;;;;;5092817;28;19961;-81
2024/01/10 14:11:25;;;;;;;;;;;14.90;99.90;;;;;;5092822;28;19909;-81
2024/01/10 14:13:52;;;;;;;;;;;14.90;99.90;;;;;;5091367;28;19977;-82